createdAt,value
2023-02-22T00:04:06.756Z,17.4
2023-02-22T00:10:12.218Z,17.4
2023-02-22T00:16:17.380Z,17.4
2023-02-22T00:22:23.066Z,17.4
2023-02-22T00:28:28.439Z,17.4
2023-02-22T00:34:33.600Z,17.3
2023-02-22T00:40:38.637Z,17.4
2023-02-22T00:46:44.421Z,17.3
2023-02-22T00:52:49.766Z,17.3
2023-02-22T00:58:55.172Z,17.3
2023-02-22T01:05:00.643Z,17.3
2023-02-22T01:11:06.822Z,17.2
2023-02-22T01:17:11.677Z,17.2
2023-02-22T01:23:17.608Z,17.2
2023-02-22T01:29:22.576Z,17.2
2023-02-22T01:35:28.074Z,17.2
2023-02-22T01:41:33.653Z,17.1
2023-02-22T01:47:38.890Z,17.1
2023-02-22T01:53:44.280Z,17.1
2023-02-22T01:59:49.023Z,17.1
2023-02-22T02:05:54.488Z,17
2023-02-22T02:11:59.977Z,17
2023-02-22T02:18:05.431Z,17
2023-02-22T02:24:11.011Z,17
2023-02-22T02:30:16.239Z,17
2023-02-22T02:36:21.772Z,17
2023-02-22T02:42:27.313Z,16.9
2023-02-22T02:48:32.684Z,16.9
2023-02-22T02:54:37.756Z,16.9
2023-02-22T03:00:43.273Z,16.9
2023-02-22T03:06:48.388Z,16.9
2023-02-22T03:12:53.740Z,16.9
2023-02-22T03:18:58.903Z,16.9
2023-02-22T03:25:04.164Z,16.8
2023-02-22T03:31:09.262Z,16.8
2023-02-22T03:37:15.214Z,16.8
2023-02-22T03:43:20.247Z,16.8
2023-02-22T03:49:26.013Z,16.8
2023-02-22T03:55:31.005Z,16.8
2023-02-22T04:01:36.277Z,16.8
2023-02-22T04:07:41.444Z,16.7
2023-02-22T04:13:46.456Z,16.7
2023-02-22T04:19:51.226Z,16.7
2023-02-22T04:25:56.311Z,16.7
2023-02-22T04:32:01.473Z,16.7
2023-02-22T04:38:07.451Z,16.6
2023-02-22T04:44:12.870Z,16.6
2023-02-22T04:50:18.207Z,16.6
2023-02-22T04:56:23.345Z,16.6
2023-02-22T05:02:28.770Z,16.7
2023-02-22T05:08:33.552Z,17.1
2023-02-22T05:14:38.716Z,17.2
2023-02-22T05:20:44.255Z,17.3
2023-02-22T05:26:49.621Z,17.4
2023-02-22T05:32:54.925Z,17.4
2023-02-22T05:38:59.986Z,17.5
2023-02-22T05:45:04.899Z,17.4
2023-02-22T05:51:10.664Z,17.4
2023-02-22T05:57:15.991Z,17.4
2023-02-22T06:03:21.037Z,17.4
2023-02-22T06:09:26.177Z,17.4
2023-02-22T06:15:31.128Z,17.5
2023-02-22T06:21:36.628Z,17.5
2023-02-22T06:27:42.201Z,17.4
2023-02-22T06:33:47.222Z,17.4
2023-02-22T06:39:52.378Z,17.4
2023-02-22T06:45:57.539Z,17.4
2023-02-22T06:52:03.474Z,17.3
2023-02-22T06:58:09.054Z,17.3
2023-02-22T07:04:14.423Z,17.3
2023-02-22T07:10:19.671Z,17.3
2023-02-22T07:16:24.873Z,17.2
2023-02-22T07:22:30.511Z,17.2
2023-02-22T07:28:36.003Z,17.1
2023-02-22T07:34:41.054Z,17.1
2023-02-22T07:40:47.251Z,17.1
2023-02-22T07:46:53.049Z,17
2023-02-22T07:52:58.428Z,17.1
2023-02-22T07:59:03.732Z,17.1
2023-02-22T08:05:09.114Z,17.1
2023-02-22T08:11:14.735Z,17.2
2023-02-22T08:17:20.751Z,17.2
2023-02-22T08:23:26.146Z,17.2
2023-02-22T08:29:31.601Z,17.3
2023-02-22T08:35:37.030Z,17.3
2023-02-22T08:41:42.446Z,17.3
2023-02-22T08:47:47.721Z,17.3
2023-02-22T08:53:53.474Z,17.3
2023-02-22T08:59:59.114Z,17.3
2023-02-22T09:06:04.573Z,17.3
2023-02-22T09:12:10.196Z,17.3
2023-02-22T09:18:15.261Z,17.3
2023-02-22T09:24:20.401Z,17.3
2023-02-22T09:30:25.641Z,17.3
2023-02-22T09:36:31.255Z,17.3
2023-02-22T09:42:36.862Z,17.3
2023-02-22T09:48:42.438Z,17.3
2023-02-22T09:54:48.225Z,17.3
2023-02-22T10:00:53.025Z,17.3
2023-02-22T10:06:58.158Z,17.3
2023-02-22T10:13:03.149Z,17.3
2023-02-22T10:19:08.520Z,17.3
2023-02-22T10:25:13.843Z,17.3
2023-02-22T10:31:19.158Z,17.3
2023-02-22T10:37:25.139Z,17.3
2023-02-22T10:43:31.320Z,17.3
2023-02-22T10:49:36.480Z,17.3
2023-02-22T10:55:41.873Z,17.4
2023-02-22T11:01:47.317Z,17.4
2023-02-22T11:07:53.192Z,17.4
2023-02-22T11:13:58.358Z,17.4
2023-02-22T11:20:03.779Z,17.4
2023-02-22T11:26:09.708Z,17.4
2023-02-22T11:32:15.321Z,17.4
2023-02-22T11:38:20.526Z,17.4
2023-02-22T11:44:25.692Z,17.5
2023-02-22T11:50:31.394Z,17.4
2023-02-22T11:56:38.473Z,17.5
2023-02-22T12:02:55.539Z,17.5
2023-02-22T12:09:01.687Z,17.5
2023-02-22T12:15:07.382Z,17.5
2023-02-22T12:21:12.980Z,17.5
2023-02-22T12:27:18.753Z,17.5
2023-02-22T12:33:24.358Z,17.5
2023-02-22T12:39:29.363Z,17.6
2023-02-22T12:45:43.635Z,17.6
2023-02-22T12:51:49.212Z,17.6
2023-02-22T12:57:54.584Z,17.6
2023-02-22T13:04:05.796Z,17.7
2023-02-22T13:10:24.005Z,17.8
2023-02-22T13:16:29.392Z,17.8
2023-02-22T13:22:34.755Z,17.8
2023-02-22T13:28:40.455Z,17.8
2023-02-22T13:34:46.236Z,17.8
2023-02-22T13:40:51.600Z,17.8
2023-02-22T13:46:57.184Z,17.8
2023-02-22T13:53:02.803Z,17.8
2023-02-22T13:59:08.526Z,17.9
2023-02-22T14:05:14.334Z,17.9
2023-02-22T14:11:19.536Z,18
2023-02-22T14:17:24.830Z,18
2023-02-22T14:23:30.069Z,18
2023-02-22T14:29:35.148Z,18
2023-02-22T14:35:49.357Z,18
2023-02-22T14:41:55.035Z,18
2023-02-22T14:48:00.478Z,18
2023-02-22T14:54:06.503Z,18
2023-02-22T15:00:11.906Z,18
2023-02-22T15:06:17.869Z,18
2023-02-22T15:12:23.008Z,18.1
2023-02-22T15:18:27.935Z,18
2023-02-22T15:24:33.100Z,18
2023-02-22T15:30:38.499Z,18
2023-02-22T15:36:43.290Z,18
2023-02-22T15:42:48.376Z,18
2023-02-22T15:48:53.626Z,18
2023-02-22T15:54:58.779Z,18
2023-02-22T16:01:03.534Z,18
2023-02-22T16:07:09.228Z,18
2023-02-22T16:13:29.638Z,18
2023-02-22T16:19:36.148Z,18
2023-02-22T16:25:44.654Z,18
2023-02-22T16:31:49.917Z,18
2023-02-22T16:37:55.315Z,18
2023-02-22T16:44:00.708Z,18
2023-02-22T16:50:06.446Z,18
2023-02-22T16:56:11.820Z,18
2023-02-22T17:02:17.070Z,18
2023-02-22T17:08:22.223Z,18
2023-02-22T17:14:28.116Z,18
2023-02-22T17:20:33.589Z,18
2023-02-22T17:26:39.074Z,18
2023-02-22T17:32:44.288Z,18.1
2023-02-22T17:38:50.163Z,18
2023-02-22T17:44:55.613Z,18
2023-02-22T17:51:01.416Z,18
2023-02-22T17:57:06.360Z,18
2023-02-22T18:03:11.900Z,18
2023-02-22T18:09:17.846Z,18
2023-02-22T18:15:23.731Z,18
2023-02-22T18:21:28.811Z,18
2023-02-22T18:27:34.217Z,18
2023-02-22T18:33:39.849Z,18
2023-02-22T18:39:45.710Z,18
2023-02-22T18:45:50.876Z,18
2023-02-22T18:51:55.916Z,18
2023-02-22T18:58:01.052Z,17.9
2023-02-22T19:04:06.264Z,17.9
2023-02-22T19:10:11.194Z,18
2023-02-22T19:16:17.242Z,17.9
2023-02-22T19:22:24.116Z,18
2023-02-22T19:28:30.099Z,18
2023-02-22T19:34:35.509Z,17.9
2023-02-22T19:40:40.882Z,18
2023-02-22T19:46:47.673Z,17.9
2023-02-22T19:52:53.457Z,17.9
2023-02-22T19:58:58.963Z,17.9
2023-02-22T20:05:04.946Z,17.9
2023-02-22T20:11:10.830Z,17.9
2023-02-22T20:17:15.966Z,17.9
2023-02-22T20:23:21.334Z,17.9
2023-02-22T20:29:26.422Z,17.9
2023-02-22T20:35:31.784Z,17.9
2023-02-22T20:41:37.173Z,17.9
2023-02-22T20:47:43.139Z,17.9
2023-02-22T20:53:48.772Z,17.9
2023-02-22T20:59:54.140Z,17.9
2023-02-22T21:05:59.151Z,17.9
2023-02-22T21:12:04.705Z,17.9
2023-02-22T21:18:10.441Z,17.9
2023-02-22T21:24:16.015Z,17.9
2023-02-22T21:30:21.407Z,17.9
2023-02-22T21:36:27.305Z,17.9
2023-02-22T21:42:32.323Z,17.9
2023-02-22T21:48:37.730Z,17.9
2023-02-22T21:54:42.438Z,17.8
2023-02-22T22:00:47.389Z,17.8
2023-02-22T22:06:52.356Z,17.8
2023-02-22T22:12:58.086Z,17.8
2023-02-22T22:19:03.718Z,17.8
2023-02-22T22:25:08.688Z,17.8
2023-02-22T22:31:14.247Z,17.8
2023-02-22T22:37:20.453Z,17.8
2023-02-22T22:43:25.983Z,17.8
2023-02-22T22:49:31.668Z,17.8
2023-02-22T22:55:37.685Z,17.7
2023-02-22T23:01:43.148Z,17.7
2023-02-22T23:07:48.270Z,17.7
2023-02-22T23:13:53.643Z,17.7
2023-02-22T23:19:59.562Z,17.6
2023-02-22T23:26:04.922Z,17.6
2023-02-22T23:32:10.616Z,17.6
2023-02-22T23:38:16.738Z,17.6
2023-02-22T23:44:21.880Z,17.6
2023-02-22T23:50:27.018Z,17.5
2023-02-22T23:56:32.460Z,17.5
